This is the latest recevied weather packets stored in our database for station/object SQ2CDE-4. If no packets are shown the sender has not sent any weather packets the latest 10 day(s).
| Time | Temp. | Humidity | Pressure | Rain* | Wind** | Luminosity | Snow |
|---|---|---|---|---|---|---|---|
| 1777711811 | 22.22° C | 29% | 1022 hPa | - | - | - | - |
| 1777711208 | 22.22° C | 29% | 1022 hPa | - | - | - | - |
| 1777710003 | 21.11° C | 30% | 1023 hPa | - | - | - | - |
| 1777709401 | 21.11° C | 30% | 1023 hPa | - | - | - | - |
| 1777708798 | 20° C | 32% | 1023 hPa | - | - | - | - |
| 1777708195 | 20° C | 32% | 1023 hPa | - | - | - | - |
| 1777707592 | 20° C | 32% | 1023 hPa | - | - | - | - |
| 1777706989 | 18.89° C | 37% | 1023 hPa | - | - | - | - |
| 1777696140 | 8.89° C | 57% | 1023 hPa | - | - | - | - |
| 1777694934 | 8.89° C | 57% | 1023 hPa | - | - | - | - |
| 1777694331 | 7.22° C | 61% | 1023 hPa | - | - | - | - |
| 1777693728 | 7.22° C | 61% | 1023 hPa | - | - | - | - |
| 1777693125 | 7.22° C | 61% | 1023 hPa | - | - | - | - |
| 1777692522 | 7.22° C | 61% | 1023 hPa | - | - | - | - |
| 1777691919 | 7.22° C | 61% | 1023 hPa | - | - | - | - |
| 1777691316 | 7.22° C | 61% | 1023 hPa | - | - | - | - |
| 1777690713 | 7.22° C | 61% | 1023 hPa | - | - | - | - |
| 1777690110 | 7.22° C | 61% | 1023 hPa | - | - | - | - |
| 1777689508 | 7.22° C | 61% | 1023 hPa | - | - | - | - |
| 1777688905 | 8.89° C | 53% | 1023 hPa | - | - | - | - |
| 1777688302 | 8.89° C | 53% | 1023 hPa | - | - | - | - |
| 1777673834 | 8.89° C | 76% | 1024 hPa | - | - | - | - |
| 1777672628 | 8.89° C | 76% | 1024 hPa | - | - | - | - |
| 1777672025 | 8.89° C | 76% | 1024 hPa | - | - | - | - |
| 1777670819 | 10° C | 76% | 1024 hPa | - | - | - | - |
* Rain since midnight (hover to see other rain measurements)
** Current wind speed in m/s (hover to see current wind gust speed)